createdAt,value
2019-04-29T00:05:00.215Z,11.30
2019-04-29T00:10:08.365Z,11.30
2019-04-29T00:15:15.757Z,11.30
2019-04-29T00:20:22.659Z,11.30
2019-04-29T00:25:27.819Z,11.30
2019-04-29T00:30:33.248Z,11.30
2019-04-29T00:35:38.704Z,11.30
2019-04-29T00:41:03.631Z,11.30
2019-04-29T00:46:09.647Z,11.30
2019-04-29T00:51:14.747Z,11.30
2019-04-29T00:56:19.783Z,11.30
2019-04-29T01:01:26.558Z,11.20
2019-04-29T01:06:31.767Z,11.20
2019-04-29T01:11:36.755Z,11.20
2019-04-29T01:16:41.987Z,11.20
2019-04-29T01:21:47.112Z,11.30
2019-04-29T01:26:54.942Z,11.20
2019-04-29T01:32:00.298Z,11.30
2019-04-29T01:37:05.403Z,11.30
2019-04-29T01:42:12.270Z,11.20
2019-04-29T01:47:17.395Z,11.20
2019-04-29T01:52:22.530Z,11.20
2019-04-29T01:57:27.856Z,11.10
2019-04-29T02:02:33.107Z,11.10
2019-04-29T02:07:38.208Z,11.10
2019-04-29T02:12:43.341Z,11.10
2019-04-29T02:17:48.239Z,11.10
2019-04-29T02:22:54.895Z,11.10
2019-04-29T02:28:00.207Z,11.10
2019-04-29T02:33:05.313Z,11.10
2019-04-29T02:38:12.002Z,11.10
2019-04-29T02:43:27.864Z,11.10
2019-04-29T02:48:34.606Z,11.10
2019-04-29T02:53:40.018Z,11.00
2019-04-29T02:58:55.761Z,11.00
2019-04-29T03:04:05.545Z,11.00
2019-04-29T03:09:10.702Z,11.00
2019-04-29T03:14:15.869Z,11.00
2019-04-29T03:19:22.505Z,10.90
2019-04-29T03:24:27.843Z,10.90
2019-04-29T03:29:33.006Z,10.90
2019-04-29T03:34:38.374Z,10.90
2019-04-29T03:39:43.730Z,10.90
2019-04-29T03:44:48.717Z,10.80
2019-04-29T03:49:53.905Z,10.80
2019-04-29T03:54:59.087Z,10.70
2019-04-29T04:00:10.358Z,10.70
2019-04-29T04:05:23.371Z,10.60
2019-04-29T04:10:28.944Z,10.70
2019-04-29T04:15:34.482Z,10.60
2019-04-29T04:20:39.814Z,10.60
2019-04-29T04:25:45.299Z,10.50
2019-04-29T04:30:50.878Z,10.50
2019-04-29T04:35:56.141Z,10.50
2019-04-29T04:41:02.959Z,10.50
2019-04-29T04:46:08.478Z,10.50
2019-04-29T04:51:14.078Z,10.50
2019-04-29T04:56:19.708Z,10.40
2019-04-29T05:01:25.077Z,10.50
2019-04-29T05:06:30.740Z,10.40
2019-04-29T05:11:36.295Z,10.50
2019-04-29T05:16:41.632Z,10.60
2019-04-29T05:21:47.002Z,10.60
2019-04-29T05:26:52.231Z,10.60
2019-04-29T05:31:57.212Z,10.70
2019-04-29T05:37:16.128Z,10.90
2019-04-29T05:42:21.287Z,11.10
2019-04-29T05:47:28.208Z,11.30
2019-04-29T05:52:39.534Z,11.50
2019-04-29T05:57:41.905Z,11.60
2019-04-29T06:02:47.116Z,11.70
2019-04-29T06:07:56.267Z,11.90
2019-04-29T06:12:58.926Z,12.00
2019-04-29T06:18:04.306Z,12.10
2019-04-29T06:23:09.656Z,12.10
2019-04-29T06:28:14.837Z,12.10
2019-04-29T06:33:24.078Z,12.20
2019-04-29T06:38:26.755Z,12.40
2019-04-29T06:43:32.145Z,12.50
2019-04-29T06:48:37.488Z,12.60
2019-04-29T06:53:42.838Z,12.90
2019-04-29T06:58:49.154Z,13.10
2019-04-29T07:03:55.691Z,13.40
2019-04-29T07:09:01.556Z,13.60
2019-04-29T07:14:06.908Z,13.90
2019-04-29T07:19:11.926Z,14.10
2019-04-29T07:24:20.163Z,14.30
2019-04-29T07:29:29.382Z,14.70
2019-04-29T07:34:33.809Z,15.00
2019-04-29T07:39:37.317Z,15.30
2019-04-29T07:44:44.506Z,15.70
2019-04-29T07:49:51.506Z,16.10
2019-04-29T07:54:57.106Z,16.30
2019-04-29T08:00:02.086Z,16.50
2019-04-29T08:05:10.389Z,16.50
2019-04-29T08:10:23.602Z,16.80
2019-04-29T08:15:22.696Z,17.10
2019-04-29T08:20:27.936Z,17.40
2019-04-29T08:25:33.028Z,17.50
2019-04-29T08:30:41.868Z,17.90
2019-04-29T08:35:46.705Z,18.10
2019-04-29T08:40:52.055Z,18.30
2019-04-29T08:46:07.546Z,18.70
2019-04-29T08:51:12.965Z,18.80
2019-04-29T08:56:18.475Z,19.00
2019-04-29T09:01:24.699Z,19.30
2019-04-29T09:06:32.602Z,19.20
2019-04-29T09:11:36.926Z,19.20
2019-04-29T09:16:42.305Z,19.30
2019-04-29T09:21:49.057Z,19.50
2019-04-29T09:26:58.985Z,19.60
2019-04-29T09:32:05.107Z,20.00
2019-04-29T09:37:10.465Z,20.30
2019-04-29T09:42:26.696Z,20.50
2019-04-29T09:47:32.667Z,20.80
2019-04-29T09:52:37.886Z,20.90
2019-04-29T09:57:43.565Z,20.90
2019-04-29T10:02:50.385Z,20.80
2019-04-29T10:07:55.709Z,21.30
2019-04-29T10:13:01.105Z,21.60
2019-04-29T10:18:10.914Z,21.90
2019-04-29T10:23:16.284Z,21.90
2019-04-29T10:28:21.567Z,21.70
2019-04-29T10:33:27.147Z,21.60
2019-04-29T10:38:32.410Z,21.80
2019-04-29T10:43:53.610Z,21.90
2019-04-29T10:49:03.614Z,21.60
2019-04-29T10:54:06.706Z,21.90
2019-04-29T10:59:11.975Z,22.10
2019-04-29T11:04:17.918Z,22.20
2019-04-29T11:09:31.195Z,22.50
2019-04-29T11:14:37.722Z,22.60
2019-04-29T11:19:43.846Z,22.60
2019-04-29T11:25:06.757Z,22.70
2019-04-29T11:30:14.326Z,22.80
2019-04-29T11:35:24.498Z,22.60
2019-04-29T11:40:42.580Z,22.70
2019-04-29T11:45:38.623Z,22.50
2019-04-29T11:50:45.196Z,22.30
2019-04-29T11:55:52.586Z,22.50
2019-04-29T12:01:03.961Z,22.40
2019-04-29T12:06:10.596Z,22.30
2019-04-29T12:11:16.569Z,21.90
2019-04-29T12:16:29.245Z,22.00
2019-04-29T12:21:36.156Z,22.30
2019-04-29T12:26:44.349Z,22.70
2019-04-29T12:31:58.231Z,22.50
2019-04-29T12:37:05.385Z,22.40
2019-04-29T12:42:28.330Z,22.40
2019-04-29T12:47:34.989Z,22.30
2019-04-29T12:52:40.447Z,22.20
2019-04-29T12:57:45.845Z,22.30
2019-04-29T13:02:59.849Z,22.60
2019-04-29T13:08:15.758Z,22.70
2019-04-29T13:13:22.016Z,22.60
2019-04-29T13:18:29.197Z,22.60
2019-04-29T13:23:39.345Z,22.60
2019-04-29T13:28:59.282Z,22.60
2019-04-29T13:33:51.074Z,22.80
2019-04-29T13:38:55.888Z,22.70
2019-04-29T13:44:07.024Z,22.90
2019-04-29T13:49:17.008Z,22.80
2019-04-29T13:54:22.285Z,22.60
2019-04-29T13:59:42.107Z,22.40
2019-04-29T14:04:49.450Z,22.40
2019-04-29T14:09:54.830Z,22.50
2019-04-29T14:15:00.239Z,22.70
2019-04-29T14:20:10.832Z,22.60
2019-04-29T14:25:14.707Z,22.40
2019-04-29T14:30:21.526Z,22.30
2019-04-29T14:35:47.628Z,22.30
2019-04-29T14:40:50.177Z,22.60
2019-04-29T14:45:56.809Z,22.60
2019-04-29T14:51:02.546Z,22.10
2019-04-29T14:56:07.577Z,22.00
2019-04-29T15:01:17.075Z,21.70
2019-04-29T15:06:22.091Z,21.40
2019-04-29T15:11:31.834Z,21.40
2019-04-29T15:16:40.707Z,21.50
2019-04-29T15:21:48.181Z,21.40
2019-04-29T15:26:53.698Z,21.30
2019-04-29T15:31:58.666Z,21.10
2019-04-29T15:37:04.074Z,21.00
2019-04-29T15:42:09.311Z,21.10
2019-04-29T15:47:14.912Z,20.80
2019-04-29T15:52:20.888Z,20.30
2019-04-29T15:57:27.256Z,20.00
2019-04-29T16:02:35.886Z,19.70
2019-04-29T16:07:46.306Z,19.50
2019-04-29T16:13:05.427Z,19.50
2019-04-29T16:18:14.420Z,19.40
2019-04-29T16:23:17.349Z,19.30
2019-04-29T16:28:31.596Z,19.10
2019-04-29T16:33:32.046Z,18.90
2019-04-29T16:38:37.025Z,18.60
2019-04-29T16:43:44.328Z,18.20
2019-04-29T16:48:49.416Z,18.00
2019-04-29T16:53:54.917Z,17.80
2019-04-29T16:59:08.886Z,17.70
2019-04-29T17:04:07.026Z,17.50
2019-04-29T17:09:22.472Z,17.30
2019-04-29T17:14:20.648Z,17.10
2019-04-29T17:19:26.032Z,16.90
2019-04-29T17:24:31.395Z,16.70
2019-04-29T17:34:58.682Z,16.30
2019-04-29T17:35:14.704Z,16.50
2019-04-29T17:39:56.199Z,16.00
2019-04-29T17:45:10.570Z,15.80
2019-04-29T17:50:30.149Z,15.60
2019-04-29T17:55:46.042Z,15.30
2019-04-29T18:01:08.802Z,15.10
2019-04-29T18:06:24.313Z,14.90
2019-04-29T18:11:26.285Z,14.80
2019-04-29T18:16:39.435Z,14.60
2019-04-29T18:21:56.871Z,14.40
2019-04-29T18:27:09.268Z,14.30
2019-04-29T18:32:15.538Z,14.10
2019-04-29T18:37:21.337Z,14.00
2019-04-29T18:42:27.769Z,13.90
2019-04-29T18:47:35.430Z,13.70
2019-04-29T18:52:40.408Z,13.60
2019-04-29T18:57:45.970Z,13.40
2019-04-29T19:02:57.225Z,13.30
2019-04-29T19:08:11.270Z,13.20
2019-04-29T19:13:12.719Z,13.00
2019-04-29T19:18:17.491Z,12.90
2019-04-29T19:23:22.352Z,12.70
2019-04-29T19:28:31.054Z,12.50
2019-04-29T19:33:35.655Z,12.40
2019-04-29T19:38:43.257Z,12.20
2019-04-29T19:43:54.846Z,12.00
2019-04-29T19:48:58.292Z,11.90
2019-04-29T19:54:01.722Z,11.70
2019-04-29T19:59:26.849Z,11.70
2019-04-29T20:04:40.185Z,11.60
2019-04-29T20:09:48.221Z,11.40
2019-04-29T20:14:58.671Z,11.30
2019-04-29T20:20:17.594Z,11.30
2019-04-29T20:25:31.030Z,11.10
2019-04-29T20:30:30.947Z,11.00
2019-04-29T20:35:40.278Z,10.90
2019-04-29T20:40:43.666Z,10.90
2019-04-29T20:45:49.496Z,10.80
2019-04-29T20:50:56.484Z,10.60
2019-04-29T20:56:10.409Z,10.60
2019-04-29T21:01:11.444Z,10.40
2019-04-29T21:06:17.088Z,10.40
2019-04-29T21:11:25.723Z,10.30
2019-04-29T21:16:32.809Z,10.20
2019-04-29T21:21:41.767Z,10.10
2019-04-29T21:26:46.044Z,10.00
2019-04-29T21:31:58.388Z,9.90
2019-04-29T21:37:01.608Z,9.80
2019-04-29T21:42:17.328Z,9.70
2019-04-29T21:47:25.055Z,9.70
2019-04-29T21:52:30.190Z,9.60
2019-04-29T21:57:35.379Z,9.50
2019-04-29T22:02:41.474Z,9.40
2019-04-29T22:07:47.574Z,9.40
2019-04-29T22:12:58.324Z,9.40
2019-04-29T22:18:01.667Z,9.30
2019-04-29T22:23:12.961Z,9.20
2019-04-29T22:28:15.981Z,9.10
2019-04-29T22:33:20.280Z,9.00
2019-04-29T22:38:25.470Z,8.90
2019-04-29T22:43:54.675Z,8.80
2019-04-29T22:49:01.264Z,8.70
2019-04-29T22:54:25.786Z,8.70
2019-04-29T22:59:30.722Z,8.60
2019-04-29T23:04:35.991Z,8.60
2019-04-29T23:09:41.646Z,8.50
2019-04-29T23:14:47.822Z,8.40
2019-04-29T23:19:55.131Z,8.40
2019-04-29T23:25:05.669Z,8.40
2019-04-29T23:30:13.571Z,8.40
2019-04-29T23:35:20.015Z,8.30
2019-04-29T23:40:25.589Z,8.20
2019-04-29T23:45:30.769Z,8.20
2019-04-29T23:50:36.111Z,8.10
2019-04-29T23:55:41.370Z,8.00
